createdAt,value
2023-03-03T00:00:57.800Z,84.87
2023-03-03T00:03:27.181Z,80.90
2023-03-03T00:05:54.369Z,91.90
2023-03-03T00:08:23.218Z,96.60
2023-03-03T00:10:50.488Z,73.30
2023-03-03T00:13:27.742Z,99.27
2023-03-03T00:16:09.254Z,83.77
2023-03-03T00:18:40.802Z,116.93
2023-03-03T00:21:24.023Z,124.63
2023-03-03T00:23:50.826Z,126.00
2023-03-03T00:26:36.548Z,113.97
2023-03-03T00:29:20.144Z,95.57
2023-03-03T00:31:46.873Z,103.87
2023-03-03T00:34:20.221Z,119.10
2023-03-03T00:36:49.677Z,107.20
2023-03-03T00:39:19.549Z,116.43
2023-03-03T00:41:46.703Z,95.87
2023-03-03T00:44:34.508Z,105.23
2023-03-03T00:47:27.686Z,105.77
2023-03-03T00:50:06.692Z,85.47
2023-03-03T00:52:44.806Z,94.00
2023-03-03T00:55:12.068Z,92.60
2023-03-03T00:57:38.820Z,88.27
2023-03-03T01:00:06.145Z,80.80
2023-03-03T01:02:32.880Z,79.13
2023-03-03T01:04:59.616Z,62.23
2023-03-03T01:07:29.468Z,79.80
2023-03-03T01:09:56.322Z,55.83
2023-03-03T01:12:24.369Z,77.13
2023-03-03T01:14:53.149Z,73.43
2023-03-03T01:17:20.209Z,76.87
2023-03-03T01:19:47.283Z,71.23
2023-03-03T01:22:14.076Z,70.57
2023-03-03T01:24:41.002Z,74.43
2023-03-03T01:27:07.813Z,65.83
2023-03-03T01:29:34.774Z,57.07
2023-03-03T01:32:01.714Z,72.80
2023-03-03T01:34:28.455Z,72.67
2023-03-03T01:36:55.460Z,69.17
2023-03-03T01:39:22.571Z,65.00
2023-03-03T01:41:49.553Z,75.87
2023-03-03T01:44:16.746Z,57.30
2023-03-03T01:46:54.464Z,51.50
2023-03-03T01:49:34.489Z,64.40
2023-03-03T01:52:08.491Z,52.10
2023-03-03T01:54:41.819Z,59.40
2023-03-03T01:57:16.648Z,54.83
2023-03-03T01:59:49.737Z,53.57
2023-03-03T02:02:17.220Z,58.83
2023-03-03T02:04:43.975Z,37.50
2023-03-03T02:07:12.223Z,59.53
2023-03-03T02:09:55.629Z,69.10
2023-03-03T02:12:30.442Z,50.43
2023-03-03T02:14:57.274Z,56.00
2023-03-03T02:17:24.379Z,46.73
2023-03-03T02:20:07.339Z,56.50
2023-03-03T02:23:06.333Z,49.00
2023-03-03T02:25:59.171Z,43.63
2023-03-03T02:28:32.490Z,49.27
2023-03-03T02:31:00.754Z,59.63
2023-03-03T02:33:30.220Z,54.37
2023-03-03T02:35:57.141Z,50.57
2023-03-03T02:38:47.634Z,56.60
2023-03-03T02:41:23.291Z,56.13
2023-03-03T02:46:37.461Z,50.30
2023-03-03T02:49:05.515Z,53.77
2023-03-03T02:51:32.867Z,48.93
2023-03-03T02:53:59.689Z,56.27
2023-03-03T02:56:26.718Z,53.27
2023-03-03T02:58:53.820Z,63.87
2023-03-03T03:01:20.827Z,48.33
2023-03-03T03:03:47.731Z,64.90
2023-03-03T03:06:15.733Z,58.10
2023-03-03T03:08:42.485Z,63.70
2023-03-03T03:11:09.360Z,55.33
2023-03-03T03:13:36.136Z,45.10
2023-03-03T03:16:03.119Z,27.73
2023-03-03T03:18:29.890Z,48.97
2023-03-03T03:20:56.725Z,49.03
2023-03-03T03:23:23.458Z,44.77
2023-03-03T03:25:50.247Z,42.80
2023-03-03T03:28:18.864Z,54.40
2023-03-03T03:30:45.874Z,50.47
2023-03-03T03:33:13.465Z,50.77
2023-03-03T03:35:45.560Z,55.97
2023-03-03T03:38:12.930Z,49.37
2023-03-03T03:40:40.405Z,50.30
2023-03-03T03:43:07.686Z,45.43
2023-03-03T03:45:34.628Z,48.70
2023-03-03T03:48:01.451Z,55.30
2023-03-03T03:50:28.291Z,49.67
2023-03-03T03:52:56.460Z,51.27
2023-03-03T03:55:23.203Z,52.33
2023-03-03T03:57:50.081Z,43.67
2023-03-03T04:00:17.611Z,48.47
2023-03-03T04:02:44.470Z,59.03
2023-03-03T04:05:11.358Z,49.47
2023-03-03T04:07:38.101Z,51.77
2023-03-03T04:10:05.481Z,51.37
2023-03-03T04:12:38.496Z,48.57
2023-03-03T04:15:07.996Z,51.67
2023-03-03T04:17:34.778Z,55.73
2023-03-03T04:20:02.490Z,53.53
2023-03-03T04:22:33.945Z,63.07
2023-03-03T04:25:05.093Z,67.80
2023-03-03T04:27:33.413Z,59.77
2023-03-03T04:30:00.398Z,60.10
2023-03-03T04:32:27.410Z,65.40
2023-03-03T04:35:05.582Z,64.97
2023-03-03T04:37:34.310Z,64.20
2023-03-03T04:40:01.273Z,55.43
2023-03-03T04:42:28.942Z,67.33
2023-03-03T04:44:55.687Z,56.00
2023-03-03T04:47:22.496Z,61.80
2023-03-03T04:49:49.305Z,70.93
2023-03-03T04:52:16.106Z,54.37
2023-03-03T04:54:42.931Z,60.90
2023-03-03T04:57:09.738Z,63.50
2023-03-03T04:59:37.109Z,58.27
2023-03-03T05:02:05.487Z,63.80
2023-03-03T05:04:33.560Z,59.87
2023-03-03T05:07:00.529Z,52.03
2023-03-03T05:09:27.915Z,64.27
2023-03-03T05:11:54.695Z,63.80
2023-03-03T05:14:21.692Z,61.27
2023-03-03T05:16:48.550Z,60.63
2023-03-03T05:19:15.550Z,49.47
2023-03-03T05:21:42.740Z,66.23
2023-03-03T05:24:11.399Z,71.53
2023-03-03T05:26:38.473Z,72.73
2023-03-03T05:29:05.858Z,65.33
2023-03-03T05:31:33.029Z,70.43
2023-03-03T05:34:00.047Z,60.90
2023-03-03T05:36:27.270Z,56.10
2023-03-03T05:38:54.075Z,65.63
2023-03-03T05:41:20.895Z,66.13
2023-03-03T05:43:47.922Z,75.77
2023-03-03T05:46:14.899Z,62.43
2023-03-03T05:48:42.080Z,64.90
2023-03-03T05:51:09.121Z,70.80
2023-03-03T05:53:36.031Z,77.27
2023-03-03T05:56:03.117Z,66.33
2023-03-03T05:58:30.373Z,69.30
2023-03-03T06:00:57.150Z,68.23
2023-03-03T06:03:24.007Z,69.30
2023-03-03T06:05:50.766Z,69.60
2023-03-03T06:08:17.577Z,83.53
2023-03-03T06:10:44.616Z,68.40
2023-03-03T06:13:11.558Z,81.83
2023-03-03T06:15:38.816Z,77.73
2023-03-03T06:18:05.822Z,70.37
2023-03-03T06:20:33.630Z,94.23
2023-03-03T06:23:00.450Z,84.37
2023-03-03T06:25:28.025Z,83.03
2023-03-03T06:27:54.889Z,81.80
2023-03-03T06:30:21.963Z,61.90
2023-03-03T06:32:48.808Z,70.80
2023-03-03T06:35:15.796Z,75.00
2023-03-03T06:37:42.597Z,80.83
2023-03-03T06:40:10.059Z,76.53
2023-03-03T06:42:36.837Z,72.33
2023-03-03T06:45:03.863Z,62.10
2023-03-03T06:47:31.684Z,71.73
2023-03-03T06:49:58.412Z,71.47
2023-03-03T06:52:27.140Z,66.03
2023-03-03T06:55:00.181Z,77.57
2023-03-03T06:57:30.030Z,62.90
2023-03-03T07:00:16.238Z,51.03
2023-03-03T07:02:43.345Z,67.30
2023-03-03T07:05:15.436Z,57.83
2023-03-03T07:07:42.628Z,49.80
2023-03-03T07:10:27.645Z,58.83
2023-03-03T07:12:56.714Z,55.17
2023-03-03T07:15:24.644Z,58.80
2023-03-03T07:17:59.717Z,53.30
2023-03-03T07:20:52.748Z,46.67
2023-03-03T07:23:42.606Z,64.43
2023-03-03T07:26:14.489Z,60.33
2023-03-03T07:28:43.446Z,61.50
2023-03-03T07:31:35.359Z,56.73
2023-03-03T07:34:05.176Z,46.43
2023-03-03T07:36:37.376Z,50.10
2023-03-03T07:39:18.430Z,50.70
2023-03-03T07:41:45.162Z,43.10
2023-03-03T07:44:35.305Z,53.10
2023-03-03T07:47:23.817Z,53.60
2023-03-03T07:49:51.933Z,34.40
2023-03-03T07:52:29.190Z,57.40
2023-03-03T07:54:59.034Z,60.37
2023-03-03T07:57:27.375Z,54.97
2023-03-03T08:00:14.753Z,43.73
2023-03-03T08:02:43.810Z,50.37
2023-03-03T08:05:33.581Z,48.17
2023-03-03T08:08:19.792Z,38.10
2023-03-03T08:11:05.963Z,36.17
2023-03-03T08:13:37.771Z,44.77
2023-03-03T08:16:26.666Z,45.40
2023-03-03T08:18:54.336Z,43.10
2023-03-03T08:21:27.440Z,48.53
2023-03-03T08:23:54.328Z,45.10
2023-03-03T08:26:22.398Z,49.07
2023-03-03T08:28:50.092Z,49.10
2023-03-03T08:31:38.355Z,35.80
2023-03-03T08:34:07.373Z,28.33
2023-03-03T08:36:34.939Z,34.17
2023-03-03T08:39:02.649Z,40.17
2023-03-03T08:41:29.459Z,41.03
2023-03-03T08:43:56.217Z,33.27
2023-03-03T08:46:23.068Z,29.73
2023-03-03T08:48:50.060Z,45.67
2023-03-03T08:51:16.963Z,35.20
2023-03-03T08:53:43.757Z,38.33
2023-03-03T08:56:10.770Z,33.23
2023-03-03T08:58:37.706Z,33.00
2023-03-03T09:01:05.089Z,33.13
2023-03-03T09:03:32.017Z,35.93
2023-03-03T09:05:58.783Z,38.30
2023-03-03T09:08:25.599Z,31.67
2023-03-03T09:10:52.434Z,35.67
2023-03-03T09:13:20.438Z,33.93
2023-03-03T09:15:49.105Z,33.63
2023-03-03T09:18:19.381Z,37.27
2023-03-03T09:20:49.010Z,32.33
2023-03-03T09:23:54.986Z,25.97
2023-03-03T09:26:31.541Z,33.60
2023-03-03T09:29:24.868Z,30.00
2023-03-03T09:31:53.969Z,33.87
2023-03-03T09:34:38.358Z,33.33
2023-03-03T09:37:34.185Z,33.03
2023-03-03T09:40:01.064Z,24.40
2023-03-03T09:43:00.736Z,35.60
2023-03-03T09:46:05.304Z,22.77
2023-03-03T09:48:52.567Z,33.80
2023-03-03T09:51:26.391Z,31.00
2023-03-03T09:53:59.260Z,28.53
2023-03-03T09:56:34.116Z,32.37
2023-03-03T09:59:06.858Z,34.37
2023-03-03T10:01:50.363Z,32.33
2023-03-03T10:04:38.249Z,31.37
2023-03-03T10:07:31.281Z,32.83
2023-03-03T10:10:33.714Z,27.50
2023-03-03T10:13:03.524Z,26.43
2023-03-03T10:15:37.966Z,30.00
2023-03-03T10:18:26.734Z,30.67
2023-03-03T10:21:24.380Z,33.17
2023-03-03T10:24:01.444Z,28.80
2023-03-03T10:26:57.595Z,39.47
2023-03-03T10:29:47.940Z,27.50
2023-03-03T10:32:45.691Z,30.53
2023-03-03T10:35:33.678Z,29.27
2023-03-03T10:38:24.503Z,23.80
2023-03-03T10:40:58.954Z,27.60
2023-03-03T10:43:48.712Z,25.27
2023-03-03T10:46:38.799Z,24.37
2023-03-03T10:49:20.091Z,30.40
2023-03-03T10:52:25.981Z,30.50
2023-03-03T10:55:17.050Z,28.30
2023-03-03T10:57:54.374Z,26.77
2023-03-03T11:00:29.963Z,27.20
2023-03-03T11:03:18.232Z,29.80
2023-03-03T11:06:08.944Z,22.20
2023-03-03T11:09:04.353Z,26.63
2023-03-03T11:11:39.191Z,21.70
2023-03-03T11:14:40.155Z,20.60
2023-03-03T11:17:27.076Z,25.57
2023-03-03T11:20:03.056Z,27.10
2023-03-03T11:22:58.800Z,28.97
2023-03-03T11:25:44.366Z,29.23
2023-03-03T11:28:35.943Z,27.57
2023-03-03T11:31:13.762Z,27.83
2023-03-03T11:33:52.085Z,32.50
2023-03-03T11:36:26.807Z,31.00
2023-03-03T11:38:56.870Z,22.90
2023-03-03T11:41:37.783Z,30.00
2023-03-03T11:44:24.821Z,22.33
2023-03-03T11:47:05.214Z,26.83
2023-03-03T11:49:41.125Z,27.27
2023-03-03T11:52:24.480Z,19.80
2023-03-03T11:55:23.846Z,29.97
2023-03-03T11:58:20.555Z,21.83
2023-03-03T12:00:59.446Z,23.40
2023-03-03T12:03:35.835Z,24.50
2023-03-03T12:06:23.803Z,29.63
2023-03-03T12:09:28.306Z,25.03
2023-03-03T12:12:04.241Z,23.67
2023-03-03T12:17:29.336Z,21.87
2023-03-03T12:20:06.488Z,22.33
2023-03-03T12:22:50.453Z,26.70
2023-03-03T12:26:08.301Z,17.83
2023-03-03T12:29:25.352Z,26.90
2023-03-03T12:36:23.043Z,17.10
2023-03-03T12:43:02.347Z,20.23
2023-03-03T12:50:06.832Z,19.47
2023-03-03T12:52:51.848Z,17.50
2023-03-03T12:55:34.295Z,19.00
2023-03-03T12:58:15.919Z,20.57
2023-03-03T13:00:57.988Z,20.40
2023-03-03T13:03:59.337Z,19.57
2023-03-03T13:06:33.455Z,26.07
2023-03-03T13:09:11.856Z,21.43
2023-03-03T13:12:13.015Z,23.73
2023-03-03T13:14:40.049Z,20.70
2023-03-03T13:17:50.630Z,20.50
2023-03-03T13:20:45.303Z,19.90
2023-03-03T13:24:04.053Z,20.80
2023-03-03T13:26:53.951Z,19.67
2023-03-03T13:29:26.672Z,25.03
2023-03-03T13:32:00.874Z,26.20
2023-03-03T13:35:00.838Z,21.83
2023-03-03T13:37:32.178Z,28.57
2023-03-03T13:40:13.969Z,25.80
2023-03-03T13:42:57.935Z,22.60
2023-03-03T13:45:43.321Z,21.80
2023-03-03T13:48:29.166Z,23.27
2023-03-03T13:51:23.044Z,20.87
2023-03-03T13:54:15.206Z,20.80
2023-03-03T13:57:06.740Z,19.10
2023-03-03T13:59:49.981Z,27.27
2023-03-03T14:02:54.098Z,18.60
2023-03-03T14:05:23.893Z,20.83
2023-03-03T14:07:50.601Z,22.00
2023-03-03T14:10:31.363Z,25.97
2023-03-03T14:13:12.943Z,18.73
2023-03-03T14:16:10.024Z,22.40
2023-03-03T14:19:06.066Z,19.77
2023-03-03T14:21:47.966Z,18.73
2023-03-03T14:24:22.571Z,22.60
2023-03-03T14:26:51.767Z,37.80
2023-03-03T14:29:27.849Z,27.40
2023-03-03T14:31:56.729Z,18.20
2023-03-03T14:34:23.503Z,20.70
2023-03-03T14:36:54.096Z,15.77
2023-03-03T14:39:37.811Z,23.10
2023-03-03T14:42:33.961Z,25.10
2023-03-03T14:45:04.637Z,18.10
2023-03-03T14:47:45.701Z,19.33
2023-03-03T14:50:32.832Z,20.97
2023-03-03T14:53:17.650Z,19.03
2023-03-03T14:55:49.348Z,18.30
2023-03-03T14:58:40.617Z,17.80
2023-03-03T15:01:34.318Z,20.00
2023-03-03T15:04:03.971Z,17.90
2023-03-03T15:06:35.489Z,21.30
2023-03-03T15:09:26.522Z,25.83
2023-03-03T15:11:58.241Z,18.37
2023-03-03T15:17:37.354Z,17.17
2023-03-03T15:20:10.498Z,20.03
2023-03-03T15:22:46.466Z,14.97
2023-03-03T15:25:22.863Z,17.07
2023-03-03T15:28:16.822Z,19.83
2023-03-03T15:30:52.881Z,23.90
2023-03-03T15:33:38.444Z,18.50
2023-03-03T15:36:14.053Z,19.17
2023-03-03T15:38:49.296Z,16.80
2023-03-03T15:41:26.340Z,20.73
2023-03-03T15:44:19.115Z,16.20
2023-03-03T15:47:04.731Z,19.40
2023-03-03T15:49:43.724Z,17.10
2023-03-03T15:52:36.170Z,23.20
2023-03-03T15:55:39.833Z,17.60
2023-03-03T15:58:30.957Z,18.80
2023-03-03T16:01:11.083Z,23.13
2023-03-03T16:03:47.195Z,21.33
2023-03-03T16:06:24.252Z,19.17
2023-03-03T16:09:10.287Z,22.80
2023-03-03T16:11:51.188Z,16.70
2023-03-03T16:17:07.515Z,19.00
2023-03-03T16:20:01.085Z,22.80
2023-03-03T16:22:46.283Z,17.73
2023-03-03T16:25:25.420Z,17.93
2023-03-03T16:28:07.181Z,19.23
2023-03-03T16:30:50.573Z,16.23
2023-03-03T16:33:43.940Z,16.83
2023-03-03T16:36:32.300Z,17.33
2023-03-03T16:39:49.856Z,19.87
2023-03-03T16:42:28.280Z,16.10
2023-03-03T16:45:18.562Z,13.60
2023-03-03T16:47:57.578Z,18.10
2023-03-03T16:50:31.287Z,14.33
2023-03-03T16:53:26.443Z,19.47
2023-03-03T16:56:16.390Z,14.87
2023-03-03T16:58:56.553Z,15.20
2023-03-03T17:01:44.707Z,21.67
2023-03-03T17:04:42.420Z,17.60
2023-03-03T17:07:19.123Z,16.20
2023-03-03T17:09:57.767Z,17.17
2023-03-03T17:12:31.635Z,18.10
2023-03-03T17:15:11.219Z,22.67
2023-03-03T17:17:54.286Z,18.70
2023-03-03T17:20:28.682Z,19.33
2023-03-03T17:23:10.739Z,19.13
2023-03-03T17:25:59.301Z,14.00
2023-03-03T17:29:07.525Z,20.93
2023-03-03T17:31:52.284Z,22.10
2023-03-03T17:34:34.474Z,19.73
2023-03-03T17:37:19.712Z,19.40
2023-03-03T17:40:10.387Z,41.23
2023-03-03T17:43:00.437Z,18.33
2023-03-03T17:45:30.521Z,20.77
2023-03-03T17:47:57.232Z,20.70
2023-03-03T17:50:38.320Z,25.13
2023-03-03T17:53:41.948Z,19.97
2023-03-03T17:56:40.140Z,22.87
2023-03-03T17:59:35.059Z,20.10
2023-03-03T18:02:55.896Z,22.20
2023-03-03T18:06:00.305Z,23.17
2023-03-03T18:08:32.836Z,23.07
2023-03-03T18:11:02.684Z,21.40
2023-03-03T18:13:52.173Z,30.77
2023-03-03T18:16:27.902Z,29.37
2023-03-03T18:19:23.315Z,28.03
2023-03-03T18:21:59.026Z,22.23
2023-03-03T18:24:25.761Z,31.30
2023-03-03T18:26:56.154Z,41.27
2023-03-03T18:29:28.226Z,60.70
2023-03-03T18:31:58.011Z,64.20
2023-03-03T18:34:40.413Z,55.90
2023-03-03T18:37:30.766Z,38.17
2023-03-03T18:40:20.435Z,43.50
2023-03-03T18:42:49.883Z,43.10
2023-03-03T18:45:19.516Z,32.77
2023-03-03T18:48:10.380Z,27.00
2023-03-03T18:50:41.622Z,23.40
2023-03-03T18:53:17.544Z,35.00
2023-03-03T18:55:47.845Z,31.80
2023-03-03T18:58:14.489Z,29.53
2023-03-03T19:00:51.370Z,28.70
2023-03-03T19:03:35.582Z,32.43
2023-03-03T19:06:04.192Z,30.13
2023-03-03T19:09:02.790Z,26.93
2023-03-03T19:11:51.484Z,33.60
2023-03-03T19:16:57.078Z,28.60
2023-03-03T19:19:31.844Z,33.33
2023-03-03T19:22:23.225Z,30.30
2023-03-03T19:25:08.299Z,28.57
2023-03-03T19:27:46.851Z,33.90
2023-03-03T19:30:32.436Z,26.77
2023-03-03T19:33:19.264Z,28.43
2023-03-03T19:36:08.240Z,25.17
2023-03-03T19:38:41.129Z,31.87
2023-03-03T19:41:16.377Z,29.10
2023-03-03T19:44:10.711Z,27.90
2023-03-03T19:46:58.721Z,30.23
2023-03-03T19:49:55.324Z,24.60
2023-03-03T19:52:37.959Z,28.67
2023-03-03T19:55:37.349Z,30.00
2023-03-03T19:58:35.726Z,30.70
2023-03-03T20:01:14.268Z,23.67
2023-03-03T20:04:02.241Z,22.73
2023-03-03T20:06:50.653Z,22.27
2023-03-03T20:09:22.455Z,21.70
2023-03-03T20:12:05.501Z,22.47
2023-03-03T20:17:12.602Z,30.60
2023-03-03T20:20:17.029Z,25.27
2023-03-03T20:22:51.895Z,24.63
2023-03-03T20:25:24.276Z,25.20
2023-03-03T20:28:29.938Z,29.53
2023-03-03T20:31:03.552Z,28.77
2023-03-03T20:34:01.298Z,24.77
2023-03-03T20:37:04.358Z,29.20
2023-03-03T20:40:00.165Z,25.73
2023-03-03T20:42:41.526Z,25.97
2023-03-03T20:45:13.075Z,31.40
2023-03-03T20:47:48.634Z,26.27
2023-03-03T20:50:56.285Z,24.03
2023-03-03T20:53:36.904Z,23.77
2023-03-03T20:56:19.905Z,28.93
2023-03-03T20:58:53.198Z,22.87
2023-03-03T21:01:34.567Z,24.07
2023-03-03T21:04:28.188Z,20.80
2023-03-03T21:06:55.642Z,21.70
2023-03-03T21:09:36.725Z,23.17
2023-03-03T21:12:30.597Z,15.50
2023-03-03T21:15:07.425Z,22.20
2023-03-03T21:17:34.512Z,23.67
2023-03-03T21:20:23.097Z,18.20
2023-03-03T21:22:50.729Z,18.67
2023-03-03T21:25:49.658Z,14.13
2023-03-03T21:28:32.580Z,11.70
2023-03-03T21:31:03.837Z,5.50
2023-03-03T21:33:51.113Z,4.33
2023-03-03T21:36:32.021Z,2.67
2023-03-03T21:38:59.009Z,3.20
2023-03-03T21:41:25.963Z,2.20
2023-03-03T21:43:54.156Z,4.50
2023-03-03T21:46:23.575Z,2.30
2023-03-03T21:48:51.359Z,3.50
2023-03-03T21:51:20.467Z,6.87
2023-03-03T21:53:47.840Z,2.40
2023-03-03T21:56:15.172Z,2.97
2023-03-03T21:58:42.984Z,3.20
2023-03-03T22:01:09.789Z,2.00
2023-03-03T22:03:36.601Z,6.70
2023-03-03T22:06:03.700Z,3.00
2023-03-03T22:08:30.517Z,2.80
2023-03-03T22:10:57.288Z,5.00
2023-03-03T22:13:25.594Z,5.80
2023-03-03T22:15:53.388Z,4.50
2023-03-03T22:18:20.468Z,2.50
2023-03-03T22:20:48.173Z,5.37
2023-03-03T22:23:15.352Z,2.03
2023-03-03T22:25:42.492Z,7.53
2023-03-03T22:28:09.376Z,9.30
2023-03-03T22:30:36.513Z,5.73
2023-03-03T22:33:03.400Z,5.73
2023-03-03T22:35:30.437Z,4.47
2023-03-03T22:37:57.480Z,6.53
2023-03-03T22:40:24.664Z,9.10
2023-03-03T22:42:51.823Z,6.73
2023-03-03T22:45:18.663Z,5.67
2023-03-03T22:47:45.407Z,10.53
2023-03-03T22:50:13.006Z,18.63
2023-03-03T22:52:39.792Z,12.70
2023-03-03T22:55:07.170Z,5.50
2023-03-03T22:57:33.984Z,9.30
2023-03-03T23:00:02.382Z,6.30
2023-03-03T23:02:29.930Z,13.30
2023-03-03T23:05:01.105Z,7.27
2023-03-03T23:07:29.173Z,7.77
2023-03-03T23:09:56.512Z,12.40
2023-03-03T23:12:23.995Z,15.13
2023-03-03T23:14:51.179Z,5.23
2023-03-03T23:17:18.855Z,8.43
2023-03-03T23:19:46.591Z,12.83
2023-03-03T23:22:14.201Z,5.63
2023-03-03T23:24:44.692Z,10.93
2023-03-03T23:27:12.308Z,18.03
2023-03-03T23:29:39.481Z,11.40
2023-03-03T23:32:06.366Z,22.67
2023-03-03T23:34:33.283Z,11.37
2023-03-03T23:37:00.052Z,8.70
2023-03-03T23:39:26.875Z,9.20
2023-03-03T23:41:53.693Z,13.00
2023-03-03T23:44:20.403Z,11.57
2023-03-03T23:46:47.239Z,6.80
2023-03-03T23:49:14.110Z,8.50
2023-03-03T23:51:40.939Z,10.33
2023-03-03T23:54:07.704Z,10.40
2023-03-03T23:56:34.571Z,9.70
2023-03-03T23:59:01.357Z,21.23
